Volgo-balt 229 — UHZF — position and weather

sailwx.info

Track history (hours):
 
Tides and Currents Weather Stations Pressure Air Temp Water Temp Dewpoint Dewpoint Depression Visibility Wind Speed Wind Dir Waves Ship Positions

Volgo-balt 229

Last reported at 2015-Jul-05 08:33 UTC. Time now 2015-Jul-05 09:26 UTC.
Position N 59°53' E 030°13'.

Length 113 m; draft 2.6 m.

Type: Ship. MMSI: 273336300.

Date/timePositionNaut miles runAvg speedWind from/ knotsBaromVisibWave heightAir tempDewpointWater temp
2015-Jul-05 08:33N 59°53' E 030°13'0 0.0
2015-Jul-05 07:33N 59°53' E 030°12'6 6.1
2015-Jul-05 06:33N 59°55' E 030°01'8 7.7
2015-Jul-05 05:33N 59°58' E 029°47'77 6.9
2015-Jul-04 18:24N 60°01' E 027°14'14 7.8
2015-Jul-04 16:33N 59°59' E 026°45'8 8.2
2015-Jul-04 15:33N 59°58' E 026°29'89 8.0
2015-Jul-04 04:33N 59°31' E 023°41'25 8.2
2015-Jul-04 01:29N 59°19' E 022°58'8 8.2
2015-Jul-04 00:33N 59°16' E 022°45'186 8.3
2015-Jul-03 02:08N 57°41' E 017°39'5 8.5
2015-Jul-03 01:33N 57°39' E 017°31'8 8.4
2015-Jul-03 00:33N 57°34' E 017°18'8 8.2
2015-Jul-02 23:33N 57°29' E 017°06'8 8.3
2015-Jul-02 22:33N 57°23' E 016°56'8 8.4
2015-Jul-02 21:33N 57°16' E 016°46'8 8.3
2015-Jul-02 20:33N 57°10' E 016°36'2 0.2
2015-Jul-02 09:31N 57°09' E 016°34'7 7.1
2015-Jul-02 08:33N 57°14' E 016°42'7 7.1
2015-Jul-02 07:33N 57°19' E 016°50'7 7.3
2015-Jul-02 06:33N 57°25' E 016°58'7 7.3
2015-Jul-02 05:33N 57°30' E 017°08'24 7.4
2015-Jul-02 02:18N 57°44' E 017°45'5 7.3
2015-Jul-02 01:33N 57°47' E 017°53'7 7.3
2015-Jul-02 00:33N 57°51' E 018°04'197 7.3
2015-Jun-30 21:33N 59°37' E 023°24'95 7.3
2015-Jun-30 08:31N 60°01' E 026°27'18 7.4
2015-Jun-30 06:06N 59°60' E 027°03'77 7.1
2015-Jun-29 19:10N 60°00' E 029°38'5 7.9
2015-Jun-29 18:31N 59°58' E 029°48'7 7.7
2015-Jun-29 17:33N 59°55' E 030°01'6 5.7
2015-Jun-29 16:31N 59°53' E 030°13'0 0.0
2015-Jun-29 15:31N 59°53' E 030°13'0 0.0
2015-Jun-29 14:31N 59°53' E 030°13'0 0.0
2015-Jun-29 13:31N 59°53' E 030°13'0 0.0
2015-Jun-29 12:28N 59°53' E 030°13'0 0.0
2015-Jun-29 11:31N 59°53' E 030°13'0 0.0
2015-Jun-29 10:31N 59°53' E 030°13'0 0.0
2015-Jun-29 09:31N 59°53' E 030°13'0 0.0
2015-Jun-29 08:31N 59°53' E 030°13'0 0.0
2015-Jun-29 07:31N 59°53' E 030°13'0 0.0
2015-Jun-29 06:31N 59°53' E 030°13'0 0.0
2015-Jun-29 05:31N 59°53' E 030°13'0 0.0
2015-Jun-29 04:31N 59°53' E 030°13'0 0.0
2015-Jun-29 03:31N 59°53' E 030°13'0 0.0
2015-Jun-29 02:31N 59°53' E 030°13'0 0.0
2015-Jun-29 01:33N 59°53' E 030°13'6 5.8
2015-Jun-29 00:33N 59°57' E 030°21'7 6.9
2015-Jun-28 23:33N 59°51' E 030°30'2 1.7
2015-Jun-28 22:32N 59°50' E 030°32'0 0.0
2015-Jun-28 21:31N 59°50' E 030°32'0 0.0
2015-Jun-28 20:32N 59°50' E 030°32'0 0.0
2015-Jun-28 19:32N 59°50' E 030°32'0 0.0
2015-Jun-28 18:29N 59°50' E 030°32'0 0.0
2015-Jun-28 17:31N 59°50' E 030°32'0 0.0
2015-Jun-28 16:27N 59°50' E 030°32'0 0.0
2015-Jun-28 15:34N 59°50' E 030°32'0 0.0
2015-Jun-28 14:33N 59°50' E 030°32'1 0.8
2015-Jun-28 13:33N 59°51' E 030°30'  
Track history (hours):
 
Tides and Currents Weather Stations Pressure Air Temp Water Temp Dewpoint Dewpoint Depression Visibility Wind Speed Wind Dir Waves Ship Positions

Volgo-balt 229

Last reported at 2015-Jul-05 08:33 UTC. Time now 2015-Jul-05 09:26 UTC.
Position N 59°53' E 030°13'.

Length 113 m; draft 2.6 m.

Type: Ship. MMSI: 273336300.

Date/timePositionNaut miles runAvg speedWind from/ knotsBaromVisibWave heightAir tempDewpointWater temp
2015-Jul-05 08:33N 59°53' E 030°13'0 0.0
2015-Jul-05 07:33N 59°53' E 030°12'6 6.1
2015-Jul-05 06:33N 59°55' E 030°01'8 7.7
2015-Jul-05 05:33N 59°58' E 029°47'77 6.9
2015-Jul-04 18:24N 60°01' E 027°14'14 7.8
2015-Jul-04 16:33N 59°59' E 026°45'8 8.2
2015-Jul-04 15:33N 59°58' E 026°29'89 8.0
2015-Jul-04 04:33N 59°31' E 023°41'25 8.2
2015-Jul-04 01:29N 59°19' E 022°58'8 8.2
2015-Jul-04 00:33N 59°16' E 022°45'186 8.3
2015-Jul-03 02:08N 57°41' E 017°39'5 8.5
2015-Jul-03 01:33N 57°39' E 017°31'8 8.4
2015-Jul-03 00:33N 57°34' E 017°18'8 8.2
2015-Jul-02 23:33N 57°29' E 017°06'8 8.3
2015-Jul-02 22:33N 57°23' E 016°56'8 8.4
2015-Jul-02 21:33N 57°16' E 016°46'8 8.3
2015-Jul-02 20:33N 57°10' E 016°36'2 0.2
2015-Jul-02 09:31N 57°09' E 016°34'7 7.1
2015-Jul-02 08:33N 57°14' E 016°42'7 7.1
2015-Jul-02 07:33N 57°19' E 016°50'7 7.3
2015-Jul-02 06:33N 57°25' E 016°58'7 7.3
2015-Jul-02 05:33N 57°30' E 017°08'24 7.4
2015-Jul-02 02:18N 57°44' E 017°45'5 7.3
2015-Jul-02 01:33N 57°47' E 017°53'7 7.3
2015-Jul-02 00:33N 57°51' E 018°04'197 7.3
2015-Jun-30 21:33N 59°37' E 023°24'95 7.3
2015-Jun-30 08:31N 60°01' E 026°27'18 7.4
2015-Jun-30 06:06N 59°60' E 027°03'77 7.1
2015-Jun-29 19:10N 60°00' E 029°38'5 7.9
2015-Jun-29 18:31N 59°58' E 029°48'7 7.7
2015-Jun-29 17:33N 59°55' E 030°01'6 5.7
2015-Jun-29 16:31N 59°53' E 030°13'0 0.0
2015-Jun-29 15:31N 59°53' E 030°13'0 0.0
2015-Jun-29 14:31N 59°53' E 030°13'0 0.0
2015-Jun-29 13:31N 59°53' E 030°13'0 0.0
2015-Jun-29 12:28N 59°53' E 030°13'0 0.0
2015-Jun-29 11:31N 59°53' E 030°13'0 0.0
2015-Jun-29 10:31N 59°53' E 030°13'0 0.0
2015-Jun-29 09:31N 59°53' E 030°13'0 0.0
2015-Jun-29 08:31N 59°53' E 030°13'0 0.0
2015-Jun-29 07:31N 59°53' E 030°13'0 0.0
2015-Jun-29 06:31N 59°53' E 030°13'0 0.0
2015-Jun-29 05:31N 59°53' E 030°13'0 0.0
2015-Jun-29 04:31N 59°53' E 030°13'0 0.0
2015-Jun-29 03:31N 59°53' E 030°13'0 0.0
2015-Jun-29 02:31N 59°53' E 030°13'0 0.0
2015-Jun-29 01:33N 59°53' E 030°13'6 5.8
2015-Jun-29 00:33N 59°57' E 030°21'7 6.9
2015-Jun-28 23:33N 59°51' E 030°30'2 1.7
2015-Jun-28 22:32N 59°50' E 030°32'0 0.0
2015-Jun-28 21:31N 59°50' E 030°32'0 0.0
2015-Jun-28 20:32N 59°50' E 030°32'0 0.0
2015-Jun-28 19:32N 59°50' E 030°32'0 0.0
2015-Jun-28 18:29N 59°50' E 030°32'0 0.0
2015-Jun-28 17:31N 59°50' E 030°32'0 0.0
2015-Jun-28 16:27N 59°50' E 030°32'0 0.0
2015-Jun-28 15:34N 59°50' E 030°32'0 0.0
2015-Jun-28 14:33N 59°50' E 030°32'1 0.8
2015-Jun-28 13:33N 59°51' E 030°30'  

Dump ship's entire track history